Time;durP1;ratioP1;P1;durP2;ratioP2;P2;SDS_P1;SDS_P2;PMS_P1;PMS_P2;Temp;Humidity;BMP_temperature;BMP_pressure;BME280_temperature;BME280_humidity;BME280_pressure;Samples;Min_cycle;Max_cycle;Signal;HPM_P1;HPM_P2
2022/06/25 00:01:24;;;;;;;12.47;9.27;;;;;;;24.72;55.04;100713.31;5083318;28;20723;-61
2022/06/25 00:03:50;;;;;;;12.07;8.75;;;;;;;24.74;54.42;100711.56;5048414;28;20900;-61
2022/06/25 00:06:15;;;;;;;9.88;8.40;;;;;;;24.75;55.19;100705.41;5047018;28;20421;-62
2022/06/25 00:08:42;;;;;;;10.15;8.35;;;;;;;24.71;54.67;100701.03;5076719;28;20388;-61
2022/06/25 00:11:07;;;;;;;10.48;8.60;;;;;;;24.75;55.09;100697.50;5059323;28;20372;-62
2022/06/25 00:13:34;;;;;;;11.52;8.32;;;;;;;24.63;55.26;100681.78;5068230;28;20404;-62
2022/06/25 00:16:03;;;;;;;10.73;8.40;;;;;;;24.76;54.82;100701.91;5065784;28;20802;-61
2022/06/25 00:18:28;;;;;;;11.70;8.20;;;;;;;24.77;54.74;100701.00;5062234;28;20876;-61
2022/06/25 00:20:53;;;;;;;10.07;7.30;;;;;;;24.79;54.11;100703.66;5049791;28;20388;-61
2022/06/25 00:23:19;;;;;;;10.40;7.63;;;;;;;24.82;54.04;100703.63;5049059;28;20380;-61
2022/06/25 00:25:44;;;;;;;10.35;7.75;;;;;;;24.80;53.87;100711.50;5061240;28;20399;-61
2022/06/25 00:28:10;;;;;;;11.40;7.77;;;;;;;24.82;54.38;100718.53;5070448;28;20973;-62
2022/06/25 00:30:37;;;;;;;9.45;7.70;;;;;;;24.84;53.99;100722.03;5064713;28;20466;-62
2022/06/25 00:33:06;;;;;;;9.40;7.37;;;;;;;24.83;53.15;100733.44;5065212;28;20390;-62
2022/06/25 00:35:31;;;;;;;10.00;7.80;;;;;;;24.85;53.43;100734.31;5071921;28;20395;-61
2022/06/25 00:37:56;;;;;;;9.30;7.07;;;;;;;24.85;53.89;100734.31;5065858;28;20377;-62
2022/06/25 00:40:22;;;;;;;8.73;7.13;;;;;;;24.83;52.89;100736.06;5059106;28;20439;-62
2022/06/25 00:42:50;;;;;;;9.30;7.70;;;;;;;24.86;53.17;100751.84;5082913;28;20395;-62
2022/06/25 00:45:15;;;;;;;9.32;7.40;;;;;;;24.86;53.53;100751.84;5068545;28;20397;-62
2022/06/25 00:47:41;;;;;;;9.15;7.28;;;;;;;24.83;53.73;100741.34;5049631;28;20760;-61
2022/06/25 00:50:08;;;;;;;8.93;6.80;;;;;;;24.84;53.44;100743.97;5070663;28;20431;-61
2022/06/25 00:52:34;;;;;;;9.45;7.18;;;;;;;24.88;53.76;100755.34;5089404;28;20384;-61
2022/06/25 00:55:05;;;;;;;10.30;7.63;;;;;;;24.87;53.46;100758.88;5060816;28;20404;-61
2022/06/25 00:57:31;;;;;;;8.95;7.35;;;;;;;24.86;53.96;100757.13;5071138;28;20396;-62
2022/06/25 00:59:59;;;;;;;9.95;7.50;;;;;;;24.86;53.15;100759.75;5059018;28;20396;-62
2022/06/25 01:02:27;;;;;;;8.80;7.15;;;;;;;24.85;52.81;100761.53;5060640;28;20417;-62
2022/06/25 01:04:52;;;;;;;9.25;6.78;;;;;;;24.87;53.00;100762.41;5067456;28;20411;-61
2022/06/25 01:07:18;;;;;;;8.77;7.70;;;;;;;24.85;53.21;100760.63;5072965;28;20756;-61
2022/06/25 01:09:48;;;;;;;7.70;6.90;;;;;;;24.87;52.86;100770.28;5069925;28;20388;-61
2022/06/25 01:12:13;;;;;;;8.70;7.00;;;;;;;24.85;52.91;100765.91;5077981;28;20813;-62
2022/06/25 01:14:41;;;;;;;9.37;7.30;;;;;;;24.86;53.11;100778.19;5071198;28;20479;-62
2022/06/25 01:17:07;;;;;;;9.15;7.18;;;;;;;24.87;52.96;100785.22;5041202;28;20481;-61
2022/06/25 01:19:33;;;;;;;8.50;6.82;;;;;;;24.86;52.86;100783.47;5062856;28;20399;-61
2022/06/25 01:22:00;;;;;;;8.48;6.80;;;;;;;24.72;53.30;100763.34;5062540;28;20386;-61
2022/06/25 01:24:25;;;;;;;9.88;7.25;;;;;;;24.88;52.89;100792.22;5046908;28;20433;-62
2022/06/25 01:26:50;;;;;;;8.53;6.70;;;;;;;24.66;53.16;100750.22;5052071;28;20395;-62
2022/06/25 01:29:18;;;;;;;7.78;6.57;;;;;;;24.89;52.90;100786.06;5070687;28;20384;-67
2022/06/25 01:31:43;;;;;;;14.50;8.80;;;;;;;24.91;53.95;100786.94;5059773;28;20858;-57
2022/06/25 01:34:11;;;;;;;18.87;8.30;;;;;;;24.94;53.85;100786.94;5061403;28;20455;-64
2022/06/25 01:36:37;;;;;;;17.15;8.35;;;;;;;24.96;53.89;100794.81;5063366;28;20393;-63
2022/06/25 01:39:02;;;;;;;15.82;8.18;;;;;;;24.91;53.69;100786.94;5090204;28;20453;-60
2022/06/25 01:41:28;;;;;;;15.02;7.05;;;;;;;24.92;53.44;100783.44;5073021;28;20388;-63
2022/06/25 01:43:53;;;;;;;15.57;7.67;;;;;;;24.91;53.79;100786.94;5068834;28;20396;-65
2022/06/25 01:46:18;;;;;;;16.58;7.75;;;;;;;24.92;54.07;100778.19;5049999;28;20408;-62
2022/06/25 01:48:44;;;;;;;50.77;14.53;;;;;;;24.97;54.54;100786.91;5082183;28;20809;-70
2022/06/25 01:51:09;;;;;;;31.27;9.87;;;;;;;25.00;54.52;100789.53;5071556;28;20392;-65
2022/06/25 01:53:35;;;;;;;25.67;8.40;;;;;;;24.96;53.76;100785.16;5072615;28;20380;-66
2022/06/25 01:56:00;;;;;;;23.60;8.20;;;;;;;24.92;53.93;100788.72;5049943;28;20389;-65
2022/06/25 01:58:28;;;;;;;22.35;8.10;;;;;;;24.88;54.38;100803.66;5043274;28;20391;-66
2022/06/25 02:00:53;;;;;;;21.05;7.78;;;;;;;24.86;53.97;100794.00;5069487;28;20400;-65
2022/06/25 02:03:18;;;;;;;22.17;7.77;;;;;;;24.84;54.08;100795.78;5054676;28;20737;-65
2022/06/25 02:05:59;;;;;;;19.00;8.90;;;;;;;24.89;53.96;100804.50;5062281;28;20870;-65
2022/06/25 02:08:29;;;;;;;21.33;7.53;;;;;;;24.88;53.54;100797.50;5060952;28;20455;-65
2022/06/25 02:10:56;;;;;;;16.60;7.07;;;;;;;24.88;53.23;100793.13;5067584;28;20860;-65
2022/06/25 02:13:21;;;;;;;18.20;7.53;;;;;;;24.84;54.23;100787.88;5043509;28;20382;-64
2022/06/25 02:15:47;;;;;;;12.57;6.93;;;;;;;24.86;53.40;100792.25;5071172;28;20896;-65
2022/06/25 02:18:12;;;;;;;16.27;7.23;;;;;;;24.89;53.43;100793.97;5061334;28;20448;-65
2022/06/25 02:20:39;;;;;;;16.50;7.80;;;;;;;24.87;53.96;100791.38;5064251;28;21005;-66
2022/06/25 02:23:04;;;;;;;11.63;7.10;;;;;;;24.87;54.08;100790.47;5053992;28;20389;-66
2022/06/25 02:25:29;;;;;;;18.90;7.60;;;;;;;24.89;54.10;100788.72;5052903;28;20912;-65
2022/06/25 02:27:55;;;;;;;11.43;6.80;;;;;;;24.90;54.11;100798.34;5050975;28;20384;-65
2022/06/25 02:30:20;;;;;;;15.87;7.23;;;;;;;24.88;53.45;100795.75;5081211;28;20398;-65
2022/06/25 02:32:46;;;;;;;11.57;6.63;;;;;;;24.90;53.44;100803.63;5042499;28;20465;-66
2022/06/25 02:35:12;;;;;;;14.27;6.82;;;;;;;24.89;53.78;100804.50;5040602;28;20930;-65
2022/06/25 02:37:37;;;;;;;9.93;6.00;;;;;;;24.90;53.39;100806.25;5066447;28;20714;-65
2022/06/25 02:40:03;;;;;;;11.17;6.50;;;;;;;24.85;53.53;100808.06;5048202;28;20736;-65
2022/06/25 02:42:39;;;;;;;12.70;7.03;;;;;;;24.89;52.98;100809.78;5055956;28;20428;-65
2022/06/25 02:45:06;;;;;;;12.13;6.63;;;;;;;24.89;54.17;100804.50;5066666;28;20789;-66
2022/06/25 02:47:31;;;;;;;11.15;6.70;;;;;;;24.90;53.92;100806.25;5069793;22;20479;-66
2022/06/25 02:50:00;;;;;;;11.88;6.32;;;;;;;24.89;53.53;100813.31;5038275;28;20383;-63
2022/06/25 02:52:25;;;;;;;12.50;6.40;;;;;;;24.91;54.05;100815.91;5017476;28;20438;-64
2022/06/25 02:54:51;;;;;;;9.45;6.40;;;;;;;24.87;52.98;100811.56;5039424;28;20901;-64
2022/06/25 03:00:03;;;;;;;11.07;6.30;;;;;;;24.87;53.32;100816.81;5033114;28;20390;-63
2022/06/25 03:02:32;;;;;;;8.30;5.80;;;;;;;24.87;53.71;100822.09;5038631;28;20421;-66
2022/06/25 03:04:58;;;;;;;10.23;6.13;;;;;;;24.90;53.75;100827.34;5017156;28;20756;-66
2022/06/25 03:07:25;;;;;;;9.60;5.80;;;;;;;24.88;54.02;100815.94;5032020;28;20461;-67
2022/06/25 03:09:53;;;;;;;7.93;6.05;;;;;;;24.89;53.67;100828.22;5012138;28;20383;-66
2022/06/25 03:12:21;;;;;;;10.25;6.40;;;;;;;24.91;53.24;100826.44;5019554;28;20391;-67
2022/06/25 03:14:50;;;;;;;9.93;6.30;;;;;;;24.90;53.56;100819.44;5014752;28;20392;-66
2022/06/25 03:17:18;;;;;;;9.20;6.10;;;;;;;24.85;53.91;100808.06;5032004;28;20601;-66
2022/06/25 03:19:48;;;;;;;9.93;6.22;;;;;;;24.89;53.72;100820.31;5027199;28;20717;-66
2022/06/25 03:22:17;;;;;;;9.33;7.30;;;;;;;24.89;53.43;100820.31;5040668;28;20874;-66
2022/06/25 03:24:42;;;;;;;9.57;6.40;;;;;;;24.89;53.21;100820.31;5030166;28;20913;-66
2022/06/25 03:27:07;;;;;;;7.13;5.97;;;;;;;24.90;53.71;100827.34;5054116;28;20391;-67
2022/06/25 03:29:38;;;;;;;9.53;6.43;;;;;;;24.87;53.26;100822.09;5035257;28;20450;-66
2022/06/25 03:32:04;;;;;;;7.82;5.80;;;;;;;24.91;53.02;100829.09;5023738;28;20387;-67
2022/06/25 03:34:29;;;;;;;7.90;6.20;;;;;;;24.80;53.51;100816.88;5041716;28;20395;-67
2022/06/25 03:36:58;;;;;;;8.95;6.53;;;;;;;24.90;53.55;100824.69;5034617;28;20402;-66
2022/06/25 03:39:23;;;;;;;9.00;6.15;;;;;;;24.89;53.28;100828.22;5020383;28;20904;-66
2022/06/25 03:41:54;;;;;;;9.20;6.53;;;;;;;24.90;54.04;100829.97;5018022;28;20395;-68
2022/06/25 03:44:26;;;;;;;9.40;6.57;;;;;;;24.90;53.27;100841.41;5019520;28;20403;-69
2022/06/25 03:46:54;;;;;;;7.75;6.32;;;;;;;24.90;53.13;100840.50;5019062;28;20426;-68
2022/06/25 03:49:19;;;;;;;8.77;6.22;;;;;;;24.91;53.43;100839.63;5037277;28;20473;-68
2022/06/25 03:51:45;;;;;;;8.00;6.45;;;;;;;24.91;53.66;100850.16;5019073;28;20867;-65
2022/06/25 03:54:13;;;;;;;8.40;6.53;;;;;;;24.92;53.07;100847.53;5028511;28;20390;-65
2022/06/25 03:56:39;;;;;;;9.05;6.35;;;;;;;24.90;52.90;100843.13;5038442;28;20399;-66
2022/06/25 03:59:07;;;;;;;9.20;6.97;;;;;;;24.93;52.88;100848.41;5035591;28;20404;-69
2022/06/25 04:01:32;;;;;;;8.70;6.72;;;;;;;24.94;52.99;100844.91;5017938;28;20736;-69
2022/06/25 04:04:02;;;;;;;8.40;6.37;;;;;;;24.91;53.79;100844.88;5042487;28;20387;-69
2022/06/25 04:06:33;;;;;;;9.00;6.43;;;;;;;24.89;53.12;100841.38;5037148;28;20370;-69
2022/06/25 04:09:04;;;;;;;7.38;6.57;;;;;;;24.92;53.42;100851.94;5019393;28;20399;-71
2022/06/25 04:11:29;;;;;;;7.40;6.15;;;;;;;24.94;53.02;100847.53;5024678;28;20399;-72
2022/06/25 04:13:58;;;;;;;7.22;6.10;;;;;;;24.92;53.68;100841.41;5036351;28;20398;-73
2022/06/25 04:16:32;;;;;;;9.45;7.10;;;;;;;24.94;53.38;100844.91;5027861;28;20377;-73
2022/06/25 04:19:00;;;;;;;6.97;6.20;;;;;;;24.92;53.11;100846.66;5049044;28;20424;-72
2022/06/25 04:21:26;;;;;;;9.77;6.90;;;;;;;24.90;53.55;100843.13;5044325;28;20396;-73
2022/06/25 04:23:52;;;;;;;7.40;6.60;;;;;;;24.90;53.44;100853.69;5020015;28;20462;-74
2022/06/25 04:26:17;;;;;;;7.60;6.80;;;;;;;24.92;53.14;100851.94;5043479;28;20856;-74
2022/06/25 04:34:15;;;;;;;8.45;6.70;;;;;;;24.91;53.14;100855.44;5063515;28;20475;-74
2022/06/25 04:36:40;;;;;;;8.35;6.55;;;;;;;24.91;53.43;100856.31;5062735;28;20393;-74
2022/06/25 04:39:06;;;;;;;7.93;6.15;;;;;;;24.93;53.53;100865.09;5047550;28;20451;-76
2022/06/25 04:41:39;;;;;;;8.43;6.78;;;;;;;24.93;54.15;100864.22;5065966;28;20424;-78
2022/06/25 04:44:07;;;;;;;7.70;6.70;;;;;;;24.94;53.48;100866.84;5063606;28;20393;-73
2022/06/25 04:46:32;;;;;;;8.68;7.03;;;;;;;24.87;53.38;100853.69;5046218;28;20385;-71
2022/06/25 04:48:58;;;;;;;7.43;6.25;;;;;;;24.93;53.74;100869.50;5055961;28;22037;-71
2022/06/25 04:51:28;;;;;;;8.57;6.47;;;;;;;24.95;53.84;100878.25;5070299;28;20405;-71
2022/06/25 04:53:57;;;;;;;8.23;6.40;;;;;;;24.95;53.34;100873.00;5062954;28;20367;-71
2022/06/25 04:56:27;;;;;;;7.68;6.70;;;;;;;24.95;53.18;100873.00;5048422;28;20897;-71
2022/06/25 04:58:52;;;;;;;7.15;6.45;;;;;;;24.93;53.60;100877.41;5065333;28;20742;-74
2022/06/25 05:01:20;;;;;;;7.82;6.10;;;;;;;24.94;53.28;100877.38;5071241;28;20382;-67
2022/06/25 05:03:51;;;;;;;8.98;6.72;;;;;;;24.95;53.68;100878.25;5062070;28;20387;-68
2022/06/25 05:06:20;;;;;;;7.72;6.43;;;;;;;24.94;53.06;100887.06;5053648;28;20421;-67
2022/06/25 05:08:46;;;;;;;8.52;6.55;;;;;;;24.97;53.23;100896.69;5062933;28;20846;-68
2022/06/25 05:11:11;;;;;;;7.67;6.43;;;;;;;24.90;53.09;100885.28;5031074;28;20419;-67
2022/06/25 05:13:39;;;;;;;7.23;6.53;;;;;;;24.97;53.72;100897.56;5047258;28;21005;-65
2022/06/25 05:16:07;;;;;;;7.00;6.30;;;;;;;24.97;53.04;100887.03;5056268;28;20401;-64
2022/06/25 05:18:33;;;;;;;7.97;6.85;;;;;;;24.98;53.38;100894.03;5064595;28;20398;-61
2022/06/25 05:21:04;;;;;;;7.68;6.85;;;;;;;24.97;53.60;100892.28;5056566;28;20984;-61
2022/06/25 05:23:30;;;;;;;7.57;6.22;;;;;;;24.99;53.31;100901.06;5042305;28;20720;-61
2022/06/25 05:25:55;;;;;;;7.80;6.27;;;;;;;24.98;53.03;100899.31;5060439;28;20929;-71
2022/06/25 05:28:20;;;;;;;6.93;6.23;;;;;;;24.97;53.69;100892.28;5049822;28;20445;-63
2022/06/25 05:30:49;;;;;;;6.28;5.63;;;;;;;24.99;53.68;100905.44;5059143;28;20449;-64
2022/06/25 05:33:15;;;;;;;8.27;6.03;;;;;;;24.99;52.91;100911.59;5048324;28;20405;-64
2022/06/25 05:35:44;;;;;;;7.93;6.20;;;;;;;24.98;53.85;100911.59;5069965;28;20412;-64
2022/06/25 05:38:12;;;;;;;11.17;6.13;;;;;;;25.00;54.01;100918.63;5050067;28;20393;-63
2022/06/25 05:40:43;;;;;;;7.63;6.15;;;;;;;25.02;53.55;100916.84;5060980;28;20387;-64
2022/06/25 05:43:08;;;;;;;6.60;5.90;;;;;;;24.96;52.94;100911.63;5040834;28;20420;-64
2022/06/25 05:45:34;;;;;;;7.60;6.10;;;;;;;25.02;53.20;100927.41;5050782;28;20437;-72
2022/06/25 05:48:03;;;;;;;7.00;6.13;;;;;;;24.99;53.03;100930.03;5042047;28;20376;-71
2022/06/25 05:50:29;;;;;;;7.10;6.40;;;;;;;25.01;53.79;100936.19;5048368;28;20430;-68
2022/06/25 05:52:59;;;;;;;7.00;6.03;;;;;;;25.02;53.08;100942.31;5053245;28;20423;-68
2022/06/25 05:55:27;;;;;;;7.85;5.68;;;;;;;24.96;53.77;100930.06;5046997;28;20385;-76
2022/06/25 05:57:55;;;;;;;6.00;5.40;;;;;;;24.99;52.95;100937.94;5053263;28;20724;-76
2022/06/25 06:00:20;;;;;;;6.57;5.30;;;;;;;25.00;53.15;100950.25;5039580;28;20400;-75
2022/06/25 06:02:46;;;;;;;6.07;5.30;;;;;;;24.99;53.93;100947.59;5063484;28;20750;-74
2022/06/25 06:05:11;;;;;;;6.10;5.45;;;;;;;25.01;54.13;100952.00;5042752;28;20805;-67
2022/06/25 06:07:37;;;;;;;6.60;5.37;;;;;;;25.03;53.45;100955.50;5064684;28;20386;-67
2022/06/25 06:10:05;;;;;;;7.10;5.87;;;;;;;25.02;53.11;100959.00;5042562;28;20386;-68
2022/06/25 06:12:30;;;;;;;7.72;5.55;;;;;;;25.03;53.71;100949.31;5063165;28;20424;-68
2022/06/25 06:14:59;;;;;;;6.17;5.30;;;;;;;25.03;53.14;100954.59;5062038;28;20396;-70
2022/06/25 06:17:26;;;;;;;6.82;5.45;;;;;;;25.02;53.15;100961.66;5058790;28;20382;-66
2022/06/25 06:19:52;;;;;;;5.90;5.27;;;;;;;24.98;53.62;100946.75;5045314;28;20479;-66
2022/06/25 06:22:20;;;;;;;5.53;4.83;;;;;;;24.97;53.79;100939.72;5040202;28;20499;-69
2022/06/25 06:24:45;;;;;;;6.40;5.10;;;;;;;25.04;53.66;100956.34;5070542;28;20393;-69
2022/06/25 06:27:11;;;;;;;6.53;5.23;;;;;;;24.99;53.43;100948.50;5042487;28;20402;-68
2022/06/25 06:29:39;;;;;;;6.10;5.00;;;;;;;25.05;52.92;100963.38;5048536;28;20459;-69
2022/06/25 06:32:05;;;;;;;5.78;5.05;;;;;;;24.99;53.94;100948.50;5043424;28;20436;-70
2022/06/25 06:34:33;;;;;;;5.90;4.93;;;;;;;25.01;52.93;100945.84;5061537;28;20385;-70
2022/06/25 06:37:01;;;;;;;5.45;4.90;;;;;;;25.01;53.88;100957.25;5037739;28;20733;-70
2022/06/25 06:39:27;;;;;;;5.10;4.60;;;;;;;25.04;53.86;100957.25;5047103;28;20964;-70
2022/06/25 06:41:53;;;;;;;5.20;4.70;;;;;;;25.05;53.34;100964.25;5064507;28;20382;-70
2022/06/25 06:44:20;;;;;;;4.93;4.38;;;;;;;25.05;53.41;100968.63;5030454;28;20493;-70
2022/06/25 06:46:47;;;;;;;7.03;5.00;;;;;;;25.03;53.68;100970.41;5049928;28;20916;-70
2022/06/25 06:49:14;;;;;;;5.70;4.60;;;;;;;25.03;53.18;100971.31;5063171;28;20876;-70
2022/06/25 06:51:40;;;;;;;5.53;4.40;;;;;;;25.01;54.07;100970.44;5059303;28;20521;-71
2022/06/25 06:54:08;;;;;;;4.50;4.07;;;;;;;25.03;53.91;100981.84;5029505;28;20386;-72
2022/06/25 06:56:34;;;;;;;4.60;4.07;;;;;;;25.02;53.49;100969.56;5062779;28;20434;-70
2022/06/25 06:58:59;;;;;;;4.63;4.22;;;;;;;25.04;53.36;100980.97;5028522;28;20864;-68
2022/06/25 07:01:25;;;;;;;5.25;4.10;;;;;;;25.05;53.77;100980.06;5058083;28;20404;-71
2022/06/25 07:03:56;;;;;;;5.32;4.28;;;;;;;25.04;53.87;100982.69;5064528;28;20476;-71
2022/06/25 07:06:21;;;;;;;5.38;4.22;;;;;;;25.06;53.23;100979.19;5049113;28;20390;-70
2022/06/25 07:08:49;;;;;;;4.37;3.97;;;;;;;25.05;53.84;100980.06;5050303;28;20387;-67
2022/06/25 07:11:30;;;;;;;4.80;3.90;;;;;;;25.06;53.85;100992.38;5049662;28;20389;-69
2022/06/25 07:14:06;;;;;;;6.43;4.47;;;;;;;25.02;54.45;100980.09;5050315;28;20447;-62
2022/06/25 07:16:34;;;;;;;4.47;3.92;;;;;;;25.14;53.89;100988.81;5041666;28;20470;-69
2022/06/25 07:19:00;;;;;;;4.80;4.30;;;;;;;25.13;53.64;100992.31;5063842;28;20410;-70
2022/06/25 07:21:27;;;;;;;5.13;3.80;;;;;;;25.10;53.96;100993.19;5056911;28;20489;-64
2022/06/25 07:23:54;;;;;;;4.45;3.85;;;;;;;25.08;53.28;100995.88;5067605;28;20413;-67
2022/06/25 07:26:21;;;;;;;4.63;3.90;;;;;;;25.08;53.23;100997.59;5063680;28;20412;-67
2022/06/25 07:28:47;;;;;;;4.47;3.95;;;;;;;25.09;53.53;100997.63;5053039;28;20384;-66
2022/06/25 07:31:13;;;;;;;4.13;3.72;;;;;;;25.06;53.95;100992.38;5055370;28;20391;-69
2022/06/25 07:33:38;;;;;;;4.93;3.97;;;;;;;25.08;53.70;100995.88;5061253;28;20405;-62
2022/06/25 07:36:06;;;;;;;4.22;3.83;;;;;;;25.08;53.63;101001.13;5071315;28;20486;-66
2022/06/25 07:38:33;;;;;;;4.20;3.60;;;;;;;25.09;53.68;101002.00;5045051;28;20385;-66
2022/06/25 07:41:02;;;;;;;3.80;3.42;;;;;;;25.10;53.77;101003.75;5067836;28;20496;-65
2022/06/25 07:43:30;;;;;;;4.20;3.78;;;;;;;25.09;53.41;100997.63;5063896;28;20401;-66
2022/06/25 07:45:57;;;;;;;4.40;3.73;;;;;;;25.08;53.66;101006.41;5058506;28;20436;-64
2022/06/25 07:48:22;;;;;;;5.63;3.70;;;;;;;25.12;53.82;101006.38;5045663;28;20382;-61
2022/06/25 07:53:35;;;;;;;4.03;3.37;;;;;;;25.19;52.47;101003.69;5059198;28;20982;-62
2022/06/25 07:56:00;;;;;;;4.45;3.55;;;;;;;25.16;53.59;100998.44;5060504;28;20399;-63
2022/06/25 07:58:27;;;;;;;6.10;3.40;;;;;;;25.16;53.54;101000.22;5060190;28;20395;-62
2022/06/25 08:00:53;;;;;;;4.95;3.50;;;;;;;25.18;53.00;101011.63;5042618;28;20401;-65
2022/06/25 08:03:19;;;;;;;9.88;4.55;;;;;;;25.21;53.27;101006.34;5048238;28;20377;-60
2022/06/25 08:05:46;;;;;;;16.17;4.30;;;;;;;25.24;55.02;101011.59;5050609;28;20825;-59
2022/06/25 08:08:12;;;;;;;11.73;4.00;;;;;;;25.23;51.56;101007.19;5032108;28;20398;-62
2022/06/25 08:10:38;;;;;;;7.78;3.70;;;;;;;25.18;48.42;101012.47;5063456;28;20388;-60
2022/06/25 08:13:04;;;;;;;6.05;3.80;;;;;;;25.14;49.10;101020.44;5043837;28;20433;-60
2022/06/25 08:15:29;;;;;;;9.45;3.72;;;;;;;25.11;48.34;101025.72;5049699;28;20398;-60
2022/06/25 08:17:54;;;;;;;8.83;4.67;;;;;;;25.08;49.09;101016.94;5042880;28;20383;-53
2022/06/25 08:20:28;;;;;;;9.60;3.70;;;;;;;25.11;49.00;101018.66;5044892;28;20386;-62
2022/06/25 08:22:53;;;;;;;10.07;3.58;;;;;;;25.07;48.66;101009.91;5041728;28;20473;-61
2022/06/25 08:25:30;;;;;;;7.63;4.07;;;;;;;25.09;47.66;101013.44;5059473;28;20479;-61
2022/06/25 08:27:55;;;;;;;9.57;4.30;;;;;;;25.12;48.28;101016.94;5063547;28;20734;-65
2022/06/25 08:30:21;;;;;;;7.87;4.50;;;;;;;25.05;48.54;101016.97;5043578;28;20476;-65
2022/06/25 08:32:47;;;;;;;8.75;5.60;;;;;;;25.00;48.28;101008.22;5065626;28;20392;-70
2022/06/25 08:35:13;;;;;;;11.38;5.50;;;;;;;25.07;48.27;101020.47;5063677;28;20389;-62
2022/06/25 08:37:39;;;;;;;9.35;5.35;;;;;;;25.05;48.55;101011.69;5044441;28;20864;-54
2022/06/25 08:40:06;;;;;;;12.82;5.82;;;;;;;25.09;49.36;101018.69;5034159;28;20402;-61
2022/06/25 08:42:35;;;;;;;10.75;5.72;;;;;;;25.14;48.90;101009.88;5063426;28;20738;-58
2022/06/25 08:45:01;;;;;;;9.63;5.00;;;;;;;25.14;48.32;101015.16;5046683;28;20386;-60
2022/06/25 08:47:27;;;;;;;7.10;4.97;;;;;;;25.15;48.63;101019.53;5048997;28;20376;-61
2022/06/25 08:49:53;;;;;;;7.23;4.63;;;;;;;25.18;48.38;101023.03;5056409;28;20465;-60
2022/06/25 08:52:21;;;;;;;5.97;4.40;;;;;;;25.20;48.30;101020.41;5065488;28;20390;-60
2022/06/25 08:54:47;;;;;;;10.40;4.90;;;;;;;25.22;48.08;101018.63;5054047;28;20362;-59
2022/06/25 08:57:13;;;;;;;6.88;4.30;;;;;;;25.20;47.85;101015.13;5056821;28;20383;-60
2022/06/25 08:59:41;;;;;;;6.80;4.47;;;;;;;25.20;47.58;101015.13;5062638;28;20974;-59
2022/06/25 09:02:10;;;;;;;7.50;4.07;;;;;;;25.27;47.68;101016.84;5041179;28;20479;-60
2022/06/25 09:04:35;;;;;;;8.85;5.30;;;;;;;25.29;47.40;101020.34;5065166;28;20405;-65
2022/06/25 09:07:18;;;;;;;9.10;5.07;;;;;;;25.30;47.30;101016.81;5053087;28;20391;-61
2022/06/25 09:09:50;;;;;;;14.13;4.97;;;;;;;25.32;47.71;101015.03;5043305;28;20391;-64
2022/06/25 09:12:17;;;;;;;12.18;5.32;;;;;;;25.36;48.12;101016.78;5036125;28;20400;-62
2022/06/25 09:14:45;;;;;;;12.48;5.80;;;;;;;25.32;49.36;101009.78;5049473;28;20401;-63
2022/06/25 09:17:14;;;;;;;13.43;6.00;;;;;;;25.32;49.08;101009.78;5038215;28;20870;-62
2022/06/25 09:19:51;;;;;;;9.65;5.60;;;;;;;25.29;49.01;101015.06;5050582;28;20441;-62
2022/06/25 09:22:19;;;;;;;14.75;6.45;;;;;;;25.29;49.31;101011.53;5045955;28;20405;-61
2022/06/25 09:24:55;;;;;;;13.20;6.20;;;;;;;25.29;50.19;101008.91;5065339;28;20779;-60
2022/06/25 09:27:40;;;;;;;15.63;5.47;;;;;;;25.34;49.64;101008.00;5046705;28;20389;-59
2022/06/25 09:30:11;;;;;;;13.23;5.70;;;;;;;25.32;49.80;101008.88;5072159;28;20818;-59
2022/06/25 09:32:47;;;;;;;10.88;4.85;;;;;;;25.32;50.25;101009.78;5052158;28;20392;-59
2022/06/25 09:35:32;;;;;;;11.50;5.18;;;;;;;25.31;50.48;101013.28;5061191;28;20863;-61
2022/06/25 09:38:26;;;;;;;16.33;5.28;;;;;;;25.30;50.58;101011.53;5067139;28;20416;-61
2022/06/25 09:40:57;;;;;;;14.73;5.32;;;;;;;25.29;51.25;101015.06;5064621;28;20398;-59
2022/06/25 09:43:24;;;;;;;10.30;5.07;;;;;;;25.29;51.08;101019.44;5058034;28;20400;-59
2022/06/25 09:45:52;;;;;;;8.80;4.90;;;;;;;25.25;51.63;101013.34;5042780;28;20387;-61
2022/06/25 09:48:26;;;;;;;9.40;4.78;;;;;;;25.26;50.76;101015.09;5036580;28;20415;-59
2022/06/25 09:51:08;;;;;;;9.57;4.65;;;;;;;25.27;50.68;101016.84;5060686;28;20841;-59
2022/06/25 09:53:35;;;;;;;6.85;4.30;;;;;;;25.25;50.98;101013.34;5065670;28;20386;-58
2022/06/25 09:56:02;;;;;;;8.32;4.70;;;;;;;25.25;51.36;101013.34;5054988;28;20902;-60
2022/06/25 09:58:31;;;;;;;8.20;5.00;;;;;;;25.24;50.88;101015.06;5054342;28;20395;-59
2022/06/25 10:00:57;;;;;;;8.50;5.25;;;;;;;25.25;50.58;101010.69;5054880;28;20366;-60
2022/06/25 10:03:27;;;;;;;9.20;4.60;;;;;;;25.26;50.33;101012.44;5069824;28;20503;-61
2022/06/25 10:05:53;;;;;;;7.97;4.70;;;;;;;25.26;50.87;101009.81;5045605;28;20403;-60
2022/06/25 10:08:20;;;;;;;11.30;4.50;;;;;;;25.24;50.51;101006.31;5037587;28;20396;-59
2022/06/25 10:10:48;;;;;;;9.57;4.60;;;;;;;25.21;50.87;101006.34;5061145;28;20591;-59
2022/06/25 10:13:14;;;;;;;6.75;5.18;;;;;;;25.27;51.14;101010.66;5059949;28;20421;-59
2022/06/25 10:15:39;;;;;;;7.17;4.67;;;;;;;25.28;51.07;101008.03;5039247;28;20415;-59
2022/06/25 10:18:07;;;;;;;9.10;5.23;;;;;;;25.28;50.74;101012.44;5056529;28;20731;-60
2022/06/25 10:20:33;;;;;;;11.38;5.22;;;;;;;25.25;51.13;101013.34;5044965;28;20854;-58
2022/06/25 10:23:02;;;;;;;7.68;5.20;;;;;;;25.25;51.31;101013.34;5053195;28;20390;-59
2022/06/25 10:25:28;;;;;;;10.32;5.25;;;;;;;25.20;50.63;100999.31;5050165;28;20394;-59
2022/06/25 10:28:11;;;;;;;9.35;5.30;;;;;;;25.25;51.53;101002.78;5065658;28;20390;-58
2022/06/25 10:30:36;;;;;;;8.05;5.30;;;;;;;25.25;50.63;101005.44;5058303;28;20398;-59
2022/06/25 10:33:02;;;;;;;7.88;5.40;;;;;;;25.26;50.56;101004.53;5061614;28;20392;-59
2022/06/25 10:35:30;;;;;;;7.87;4.90;;;;;;;25.26;50.49;101004.53;5057271;28;20388;-59
2022/06/25 10:38:04;;;;;;;6.20;4.40;;;;;;;25.28;51.37;100997.50;5059806;28;20401;-59
2022/06/25 10:40:31;;;;;;;6.53;4.73;;;;;;;25.23;50.37;100994.03;5039637;28;20467;-60
2022/06/25 10:42:59;;;;;;;7.00;5.13;;;;;;;25.27;51.34;101001.03;5043791;28;20398;-59
2022/06/25 10:45:25;;;;;;;5.53;4.50;;;;;;;25.28;50.85;101005.41;5047159;28;20859;-58
2022/06/25 10:47:58;;;;;;;6.20;4.65;;;;;;;25.27;51.18;101001.03;5068189;28;20436;-59
2022/06/25 10:50:25;;;;;;;6.95;4.70;;;;;;;25.25;51.39;100992.25;5050549;28;20383;-59
2022/06/25 10:53:05;;;;;;;6.38;4.68;;;;;;;25.28;50.04;101002.78;5065340;28;20405;-59
2022/06/25 10:55:31;;;;;;;10.43;5.22;;;;;;;25.24;50.36;100990.50;5059638;28;20866;-59
2022/06/25 10:58:16;;;;;;;8.20;4.60;;;;;;;25.27;50.32;100995.75;5059363;28;20469;-59
2022/06/25 11:00:46;;;;;;;6.78;5.00;;;;;;;25.25;50.90;100986.97;5049580;28;20413;-59
2022/06/25 11:03:11;;;;;;;6.50;4.50;;;;;;;25.28;50.66;100992.22;5053145;28;20454;-60
2022/06/25 11:05:41;;;;;;;6.73;4.70;;;;;;;25.26;49.76;100999.28;5067697;28;20417;-59
2022/06/25 11:08:07;;;;;;;6.40;4.53;;;;;;;25.26;50.17;100988.72;5036170;28;20402;-59
2022/06/25 11:10:36;;;;;;;6.40;4.60;;;;;;;25.29;51.02;100999.25;5068957;28;20377;-61
2022/06/25 11:13:03;;;;;;;6.85;4.40;;;;;;;25.29;50.85;100999.25;5051335;28;20390;-58
2022/06/25 11:15:43;;;;;;;6.75;4.60;;;;;;;25.26;50.00;100983.47;5045596;28;20445;-60
2022/06/25 11:18:12;;;;;;;11.15;4.57;;;;;;;25.31;50.79;101002.75;5040147;28;20437;-60
2022/06/25 11:20:39;;;;;;;6.07;4.40;;;;;;;25.32;50.48;100999.22;5067380;28;20389;-62
2022/06/25 11:23:05;;;;;;;6.75;4.15;;;;;;;25.30;50.71;101001.00;5036772;28;20459;-59
2022/06/25 11:28:53;;;;;;;7.30;4.65;;;;;;;25.31;50.27;100997.47;5066400;28;20416;-58
2022/06/25 11:31:20;;;;;;;7.43;4.38;;;;;;;25.33;49.79;101000.09;5054625;28;20453;-59
2022/06/25 11:33:47;;;;;;;5.40;4.20;;;;;;;25.32;49.67;100993.97;5049626;28;20386;-58
2022/06/25 11:36:16;;;;;;;5.00;4.20;;;;;;;25.26;49.16;100980.81;5038471;28;20395;-59
2022/06/25 11:38:43;;;;;;;6.15;3.85;;;;;;;25.33;49.75;101000.09;5040248;28;20399;-58